createdAt,value
2022-12-15T00:02:58.465Z,93556.94
2022-12-15T00:05:50.412Z,93566.13
2022-12-15T00:08:55.394Z,93571.97
2022-12-15T00:11:54.410Z,93567.81
2022-12-15T00:15:06.418Z,93577.00
2022-12-15T00:18:18.383Z,93583.69
2022-12-15T00:21:30.403Z,93587.91
2022-12-15T00:24:42.377Z,93598.75
2022-12-15T00:27:48.391Z,93608.81
2022-12-15T00:30:49.976Z,93597.94
2022-12-15T00:34:02.378Z,93612.97
2022-12-15T00:37:07.379Z,93608.78
2022-12-15T00:39:47.382Z,93613.81
2022-12-15T00:42:35.411Z,93598.78
2022-12-15T00:45:08.467Z,93602.13
2022-12-15T00:47:55.415Z,93597.13
2022-12-15T00:50:53.409Z,93604.63
2022-12-15T00:53:58.397Z,93598.78
2022-12-15T00:56:52.233Z,93600.47
2022-12-15T00:59:57.386Z,93600.47
2022-12-15T01:02:49.187Z,93597.94
2022-12-15T01:05:55.412Z,93592.09
2022-12-15T01:08:53.409Z,93597.13
2022-12-15T01:11:58.398Z,93621.38
2022-12-15T01:14:58.412Z,93654.00
2022-12-15T01:18:10.418Z,93652.34
2022-12-15T01:21:11.463Z,93665.72
2022-12-15T01:23:52.504Z,93665.72
2022-12-15T01:26:39.438Z,93667.41
2022-12-15T01:29:19.417Z,93666.56
2022-12-15T01:32:13.397Z,93674.09
2022-12-15T01:35:01.468Z,93675.78
2022-12-15T01:37:41.511Z,93678.28
2022-12-15T01:40:53.461Z,93679.97
2022-12-15T01:43:49.802Z,93680.81
2022-12-15T01:46:43.522Z,93690.03
2022-12-15T01:49:35.403Z,93683.34
2022-12-15T01:52:19.396Z,93690.84
2022-12-15T01:55:06.405Z,93688.34
2022-12-15T01:57:41.676Z,93683.31
2022-12-15T02:00:28.437Z,93682.50
2022-12-15T02:03:10.590Z,93683.34
2022-12-15T02:06:04.438Z,93683.34
2022-12-15T02:09:00.501Z,93683.38
2022-12-15T02:12:12.450Z,93677.53
2022-12-15T02:15:44.545Z,93675.84
2022-12-15T02:18:50.446Z,93677.53
2022-12-15T02:21:56.432Z,93687.56
2022-12-15T02:25:11.498Z,93676.69
2022-12-15T02:28:07.449Z,93687.56
2022-12-15T02:30:46.516Z,93687.56
2022-12-15T02:33:37.457Z,93684.22
2022-12-15T02:36:14.526Z,93689.22
2022-12-15T02:39:01.482Z,93688.41
2022-12-15T02:41:58.465Z,93690.91
2022-12-15T02:44:52.444Z,93700.13
2022-12-15T02:47:39.432Z,93703.47
2022-12-15T02:50:55.448Z,93699.28
2022-12-15T02:53:41.432Z,93708.50
2022-12-15T02:56:42.432Z,93705.13
2022-12-15T02:59:51.426Z,93693.44
2022-12-15T03:02:41.523Z,93700.97
2022-12-15T03:05:15.527Z,93701.81
2022-12-15T03:08:02.438Z,93715.19
2022-12-15T03:10:35.601Z,93717.72
2022-12-15T03:13:22.460Z,93728.59
2022-12-15T03:16:04.571Z,93726.09
2022-12-15T03:18:58.570Z,93727.75
2022-12-15T03:21:52.445Z,93726.94
2022-12-15T03:24:46.454Z,93729.47
2022-12-15T03:27:33.446Z,93731.97
2022-12-15T03:30:06.532Z,93734.47
2022-12-15T03:33:00.432Z,93742.00
2022-12-15T03:35:47.429Z,93745.34
2022-12-15T03:38:27.461Z,93747.88
2022-12-15T03:41:14.454Z,93750.34
2022-12-15T03:43:54.488Z,93752.88
2022-12-15T03:46:41.487Z,93757.06
2022-12-15T03:49:14.569Z,93757.06
2022-12-15T03:52:01.447Z,93764.63
2022-12-15T03:54:41.446Z,93759.59
2022-12-15T03:57:35.485Z,93758.75
2022-12-15T04:00:25.461Z,93765.47
2022-12-15T04:03:06.612Z,93767.94
2022-12-15T04:05:53.447Z,93764.63
2022-12-15T04:08:33.462Z,93766.28
2022-12-15T04:11:27.508Z,93770.47
2022-12-15T04:14:22.439Z,93776.31
2022-12-15T04:17:09.569Z,93768.78
2022-12-15T04:20:02.159Z,93780.53
2022-12-15T04:22:53.472Z,93784.69
2022-12-15T04:25:50.188Z,93791.38
2022-12-15T04:28:54.499Z,93793.03
2022-12-15T04:31:52.309Z,93793.03
2022-12-15T04:34:58.452Z,93801.38
2022-12-15T04:37:59.482Z,93810.56
2022-12-15T04:41:11.475Z,93804.75
2022-12-15T04:44:16.490Z,93805.53
2022-12-15T04:47:08.266Z,93808.91
2022-12-15T04:50:14.514Z,93825.63
2022-12-15T04:53:13.467Z,93818.06
2022-12-15T04:56:18.965Z,93818.06
2022-12-15T04:59:12.085Z,93829.78
2022-12-15T05:02:16.619Z,93833.97
2022-12-15T05:05:08.565Z,93833.13
2022-12-15T05:08:13.534Z,93842.31
2022-12-15T05:11:05.085Z,93857.34
2022-12-15T05:14:09.474Z,93854.84
2022-12-15T05:17:01.597Z,93854.00
2022-12-15T05:20:07.486Z,93861.53
2022-12-15T05:22:59.346Z,93869.88
2022-12-15T05:26:04.467Z,93874.91
2022-12-15T05:29:02.479Z,93873.25
2022-12-15T05:31:58.489Z,93869.91
2022-12-15T05:34:45.483Z,93878.31
2022-12-15T05:37:18.583Z,93884.19
2022-12-15T05:40:05.481Z,93877.47
2022-12-15T05:42:38.571Z,93889.22
2022-12-15T05:45:25.483Z,93888.38
2022-12-15T05:47:59.581Z,93895.09
2022-12-15T05:50:46.489Z,93900.13
2022-12-15T05:53:19.553Z,93908.47
2022-12-15T05:56:11.501Z,93920.22
2022-12-15T05:58:45.857Z,93915.22
2022-12-15T06:01:33.557Z,93922.72
2022-12-15T06:04:07.471Z,93931.06
2022-12-15T06:06:54.561Z,93933.59
2022-12-15T06:09:27.571Z,93936.94
2022-12-15T06:12:14.470Z,93940.28
2022-12-15T06:14:47.603Z,93947.81
2022-12-15T06:17:36.484Z,93951.16
2022-12-15T06:20:09.592Z,93951.16
2022-12-15T06:22:56.510Z,93957.84
2022-12-15T06:25:29.580Z,93964.53
2022-12-15T06:28:16.499Z,93957.00
2022-12-15T06:30:49.552Z,93950.31
2022-12-15T06:33:36.519Z,93960.38
2022-12-15T06:36:12.699Z,93971.28
2022-12-15T06:38:59.513Z,93979.66
2022-12-15T06:41:40.553Z,93975.47
2022-12-15T06:44:34.496Z,93998.88
2022-12-15T06:47:28.490Z,93998.06
2022-12-15T06:50:22.566Z,94005.63
2022-12-15T06:53:16.514Z,94006.44
2022-12-15T06:56:13.537Z,94005.63
2022-12-15T06:58:46.589Z,94010.63
2022-12-15T07:01:33.769Z,94018.19
2022-12-15T07:04:07.677Z,94029.03
2022-12-15T07:06:54.554Z,94033.28
2022-12-15T07:09:34.536Z,94050.84
2022-12-15T07:12:28.531Z,94054.22
2022-12-15T07:15:15.568Z,94052.47
2022-12-15T07:17:48.636Z,94053.31
2022-12-15T07:20:35.528Z,94061.69
2022-12-15T07:23:16.514Z,94065.06
2022-12-15T07:26:11.806Z,94074.28
2022-12-15T07:28:51.529Z,94074.34
2022-12-15T07:31:38.807Z,94081.06
2022-12-15T07:34:32.532Z,94084.44
2022-12-15T07:37:19.521Z,94082.78
2022-12-15T07:39:55.735Z,94100.41
2022-12-15T07:42:42.526Z,94090.38
2022-12-15T07:45:16.648Z,94098.75
2022-12-15T07:48:03.514Z,94111.34
2022-12-15T07:50:36.619Z,94117.19
2022-12-15T07:53:23.540Z,94121.38
2022-12-15T07:56:08.823Z,94119.69
2022-12-15T07:58:50.553Z,94123.06
2022-12-15T08:01:31.618Z,94121.44
2022-12-15T08:04:12.550Z,94122.28
2022-12-15T08:07:03.544Z,94118.97
2022-12-15T08:09:43.527Z,94129.06
2022-12-15T08:12:37.559Z,94130.72
2022-12-15T08:15:31.533Z,94138.28
2022-12-15T08:18:18.547Z,94147.47
2022-12-15T08:20:51.611Z,94155.84
2022-12-15T08:23:38.577Z,94168.47
2022-12-15T08:26:21.578Z,94176.84
2022-12-15T08:32:14.657Z,94176.03
2022-12-15T08:35:01.539Z,94182.75
2022-12-15T08:37:41.595Z,94192.84
2022-12-15T08:40:35.547Z,94187.00
2022-12-15T08:43:22.558Z,94205.47
2022-12-15T08:45:58.652Z,94207.16
2022-12-15T08:48:45.565Z,94208.81
2022-12-15T08:51:18.630Z,94213.81
2022-12-15T08:54:06.548Z,94210.50
2022-12-15T08:56:49.567Z,94208.84
2022-12-15T08:59:29.592Z,94213.94
2022-12-15T09:02:09.646Z,94209.78
2022-12-15T09:04:44.048Z,94213.16
2022-12-15T09:07:30.544Z,94222.41
2022-12-15T09:10:03.623Z,94220.75
2022-12-15T09:12:50.574Z,94223.28
2022-12-15T09:15:45.462Z,94222.44
2022-12-15T09:18:31.580Z,94215.78
2022-12-15T09:21:09.612Z,94208.28
2022-12-15T09:23:58.555Z,94215.03
2022-12-15T09:26:43.565Z,94220.13
2022-12-15T09:29:37.569Z,94220.22
2022-12-15T09:32:31.561Z,94218.59
2022-12-15T09:35:18.583Z,94219.41
2022-12-15T09:37:52.138Z,94219.50
2022-12-15T09:40:39.586Z,94230.41
2022-12-15T09:43:33.855Z,94221.28
2022-12-15T09:46:27.690Z,94221.31
2022-12-15T09:49:04.965Z,94207.94
2022-12-15T09:51:57.613Z,94211.31
2022-12-15T09:54:37.708Z,94202.13
2022-12-15T09:57:33.585Z,94210.53
2022-12-15T10:00:25.839Z,94213.94
2022-12-15T10:03:23.686Z,94207.25
2022-12-15T10:06:21.222Z,94209.84
2022-12-15T10:09:21.581Z,94210.72
2022-12-15T10:12:53.219Z,94198.19
2022-12-15T10:16:04.648Z,94204.06
2022-12-15T10:19:14.587Z,94209.06
2022-12-15T10:21:54.656Z,94205.72
2022-12-15T10:28:05.611Z,94204.06
2022-12-15T10:30:39.804Z,94209.16
2022-12-15T10:33:31.111Z,94220.94
2022-12-15T10:36:04.669Z,94213.38
2022-12-15T10:38:54.582Z,94214.19
2022-12-15T10:41:29.668Z,94215.00
2022-12-15T10:44:32.608Z,94211.69
2022-12-15T10:47:23.603Z,94220.94
2022-12-15T10:54:00.594Z,94212.59
2022-12-15T10:57:09.591Z,94215.16
2022-12-15T10:59:51.593Z,94215.19
2022-12-15T11:02:42.776Z,94213.53
2022-12-15T11:05:18.744Z,94231.16
2022-12-15T11:08:24.602Z,94218.59
2022-12-15T11:11:28.600Z,94232.06
2022-12-15T11:14:24.601Z,94239.63
2022-12-15T11:17:03.681Z,94242.16
2022-12-15T11:19:58.263Z,94237.09
2022-12-15T11:22:55.611Z,94232.06
2022-12-15T11:25:50.598Z,94248.03
2022-12-15T11:28:34.675Z,94245.53
2022-12-15T11:31:27.598Z,94237.94
2022-12-15T11:34:31.617Z,94240.47
2022-12-15T11:37:36.219Z,94244.72
2022-12-15T11:40:46.607Z,94231.25
2022-12-15T11:44:20.680Z,94227.88
2022-12-15T11:47:28.607Z,94242.19
2022-12-15T11:50:31.747Z,94245.56
2022-12-15T11:53:37.636Z,94246.41
2022-12-15T11:56:35.628Z,94242.22
2022-12-15T11:59:40.607Z,94241.34
2022-12-15T12:02:47.729Z,94255.66
2022-12-15T12:05:47.629Z,94264.06
2022-12-15T12:09:07.615Z,94262.41
2022-12-15T12:12:11.635Z,94266.59
2022-12-15T12:15:10.631Z,94268.28
2022-12-15T12:18:11.622Z,94266.59
2022-12-15T12:21:05.748Z,94272.50
2022-12-15T12:23:55.601Z,94278.41
2022-12-15T12:26:53.704Z,94268.28
2022-12-15T12:29:57.649Z,94268.28
2022-12-15T12:32:46.651Z,94278.38
2022-12-15T12:35:53.638Z,94278.38
2022-12-15T12:38:52.676Z,94257.34
2022-12-15T12:41:49.624Z,94268.25
2022-12-15T12:44:43.618Z,94264.06
2022-12-15T12:47:27.726Z,94262.38
2022-12-15T12:50:23.649Z,94263.22
2022-12-15T12:53:00.712Z,94261.53
2022-12-15T12:55:48.629Z,94264.88
2022-12-15T12:58:45.734Z,94256.47
2022-12-15T13:01:38.804Z,94262.34
2022-12-15T13:04:27.648Z,94258.16
2022-12-15T13:07:48.641Z,94260.66
2022-12-15T13:10:35.632Z,94274.06
2022-12-15T13:13:23.719Z,94288.38
2022-12-15T13:16:23.647Z,94283.31
2022-12-15T13:19:18.694Z,94274.06
2022-12-15T13:22:12.612Z,94277.41
2022-12-15T13:25:06.635Z,94284.97
2022-12-15T13:28:05.629Z,94293.34
2022-12-15T13:31:23.821Z,94304.25
2022-12-15T13:33:56.971Z,94317.69
2022-12-15T13:36:43.647Z,94309.25
2022-12-15T13:39:26.687Z,94306.72
2022-12-15T13:42:33.528Z,94317.56
2022-12-15T13:45:30.671Z,94320.94
2022-12-15T13:48:31.696Z,94331.81
2022-12-15T13:51:24.659Z,94327.63
2022-12-15T13:54:11.703Z,94340.19
2022-12-15T13:57:06.661Z,94333.44
2022-12-15T13:59:46.637Z,94328.38
2022-12-15T14:02:38.667Z,94319.09
2022-12-15T14:05:14.811Z,94331.66
2022-12-15T14:08:02.632Z,94329.09
2022-12-15T14:14:09.640Z,94351.69
2022-12-15T14:16:42.799Z,94360.06
2022-12-15T14:19:34.938Z,94359.19
2022-12-15T14:22:19.177Z,94353.31
2022-12-15T14:25:20.656Z,94361.66
2022-12-15T14:27:54.752Z,94361.63
2022-12-15T14:30:41.666Z,94363.25
2022-12-15T14:33:23.006Z,94368.28
2022-12-15T14:36:17.664Z,94388.38
2022-12-15T14:39:05.738Z,94379.97
2022-12-15T14:41:55.693Z,94384.97
2022-12-15T14:47:43.691Z,94372.34
2022-12-15T14:50:23.330Z,94379.06
2022-12-15T14:53:22.662Z,94378.22
2022-12-15T14:55:55.750Z,94375.69
2022-12-15T14:58:46.703Z,94379.00
2022-12-15T15:01:31.903Z,94379.00
2022-12-15T15:03:10.677Z,94227.72
2022-12-15T15:03:16.117Z,94390.84
2022-12-15T15:04:35.677Z,94384.03
2022-12-15T15:07:11.771Z,94374.13
2022-12-15T15:09:59.683Z,94370.78
2022-12-15T15:12:57.665Z,94374.31
2022-12-15T15:15:51.694Z,94381.88
2022-12-15T15:18:38.673Z,94379.31
2022-12-15T15:21:13.772Z,94386.03
2022-12-15T15:24:08.678Z,94377.72
2022-12-15T15:26:41.889Z,94377.81
2022-12-15T15:29:49.677Z,94386.16
2022-12-15T15:32:35.669Z,94389.44
2022-12-15T15:35:29.709Z,94396.94
2022-12-15T15:38:35.425Z,94405.25
2022-12-15T15:41:21.072Z,94399.31
2022-12-15T15:44:00.705Z,94417.72
2022-12-15T15:46:51.727Z,94421.06
2022-12-15T15:49:45.697Z,94431.94
2022-12-15T15:52:35.691Z,94429.41
2022-12-15T15:55:15.702Z,94437.75
2022-12-15T15:58:09.687Z,94449.47
2022-12-15T16:00:56.804Z,94462.00
2022-12-15T16:03:30.043Z,94466.19
2022-12-15T16:06:24.711Z,94467.84
2022-12-15T16:09:06.689Z,94477.88
2022-12-15T16:12:00.713Z,94482.00
2022-12-15T16:14:47.708Z,94468.56
2022-12-15T16:17:22.773Z,94466.03
2022-12-15T16:20:10.725Z,94457.59
2022-12-15T16:22:43.853Z,94460.13
2022-12-15T16:25:48.422Z,94471.00
2022-12-15T16:28:26.818Z,94455.06
2022-12-15T16:31:20.722Z,94445.84
2022-12-15T16:34:00.699Z,94447.53
2022-12-15T16:36:54.705Z,94439.97
2022-12-15T16:39:48.717Z,94443.31
2022-12-15T16:42:35.700Z,94449.19
2022-12-15T16:45:28.713Z,94445.88
2022-12-15T16:48:22.770Z,94434.13
2022-12-15T16:51:20.779Z,94430.81
2022-12-15T16:54:14.806Z,94420.75
2022-12-15T16:57:03.709Z,94425.78
2022-12-15T16:59:36.785Z,94424.09
2022-12-15T17:02:32.973Z,94423.25
2022-12-15T17:05:06.879Z,94430.78
2022-12-15T17:07:59.719Z,94422.41
2022-12-15T17:10:36.293Z,94412.34
2022-12-15T17:13:45.388Z,94426.59
2022-12-15T17:16:19.859Z,94415.69
2022-12-15T17:19:06.721Z,94419.88
2022-12-15T17:21:45.856Z,94426.56
2022-12-15T17:24:32.760Z,94427.41
2022-12-15T17:27:12.804Z,94429.06
2022-12-15T17:30:06.752Z,94445.88
2022-12-15T17:33:00.729Z,94448.34
2022-12-15T17:35:47.715Z,94436.63
2022-12-15T17:38:25.275Z,94442.47
2022-12-15T17:41:28.821Z,94456.75
2022-12-15T17:44:31.895Z,94439.97
2022-12-15T17:47:04.822Z,94442.47
2022-12-15T17:49:44.763Z,94451.72
2022-12-15T17:52:37.836Z,94452.56
2022-12-15T17:55:34.997Z,94442.47
2022-12-15T17:58:09.857Z,94456.75
2022-12-15T18:00:59.730Z,94442.47
2022-12-15T18:03:33.235Z,94439.94
2022-12-15T18:06:21.764Z,94429.84
2022-12-15T18:08:54.802Z,94432.38
2022-12-15T18:11:41.755Z,94430.66
2022-12-15T18:14:19.857Z,94428.16
2022-12-15T18:17:06.749Z,94434.03
2022-12-15T18:19:40.134Z,94432.34
2022-12-15T18:22:30.748Z,94442.41
2022-12-15T18:25:03.893Z,94449.94
2022-12-15T18:27:50.733Z,94428.16
2022-12-15T18:30:29.970Z,94434.06
2022-12-15T18:33:24.738Z,94455.84
2022-12-15T18:36:18.759Z,94460.88
2022-12-15T18:39:12.757Z,94468.44
2022-12-15T18:42:03.748Z,94472.66
2022-12-15T18:44:38.819Z,94468.44
2022-12-15T18:47:31.807Z,94470.16
2022-12-15T18:50:04.973Z,94467.66
2022-12-15T18:52:51.781Z,94476.91
2022-12-15T18:55:28.863Z,94466.03
2022-12-15T18:58:30.777Z,94450.09
2022-12-15T19:01:06.905Z,94445.91
2022-12-15T19:03:53.758Z,94446.72
2022-12-15T19:06:43.747Z,94460.94
2022-12-15T19:09:37.755Z,94461.78
2022-12-15T19:12:24.751Z,94454.19
2022-12-15T19:14:59.022Z,94444.13
2022-12-15T19:18:03.949Z,94425.69
2022-12-15T19:20:55.370Z,94425.72
2022-12-15T19:23:41.772Z,94430.72
2022-12-15T19:26:17.861Z,94431.59
2022-12-15T19:29:04.786Z,94430.75
2022-12-15T19:31:37.905Z,94433.22
2022-12-15T19:34:24.792Z,94434.09
2022-12-15T19:36:57.859Z,94430.72
2022-12-15T19:39:44.762Z,94422.34
2022-12-15T19:42:32.769Z,94423.16
2022-12-15T19:45:35.806Z,94430.75
2022-12-15T19:48:24.156Z,94439.97
2022-12-15T19:51:04.769Z,94432.44
2022-12-15T19:53:55.779Z,94426.56
2022-12-15T19:56:36.781Z,94429.06
2022-12-15T19:59:31.777Z,94418.16
2022-12-15T20:02:05.092Z,94409.81
2022-12-15T20:04:51.788Z,94412.28
2022-12-15T20:07:30.902Z,94407.28
2022-12-15T20:10:32.919Z,94397.22
2022-12-15T20:13:07.598Z,94401.41
2022-12-15T20:15:54.829Z,94413.09
2022-12-15T20:18:35.293Z,94412.28
2022-12-15T20:21:29.798Z,94422.38
2022-12-15T20:24:28.791Z,94424.03
2022-12-15T20:27:30.785Z,94409.78
2022-12-15T20:30:29.800Z,94398.84
2022-12-15T20:33:03.001Z,94410.56
2022-12-15T20:35:51.784Z,94420.59
2022-12-15T20:38:35.792Z,94426.50
2022-12-15T20:41:33.795Z,94418.97
2022-12-15T20:44:06.985Z,94403.03
2022-12-15T20:46:53.787Z,94408.09
2022-12-15T20:49:28.910Z,94407.25
2022-12-15T20:52:25.798Z,94398.84
2022-12-15T20:55:02.979Z,94400.53
2022-12-15T20:57:49.803Z,94399.69
2022-12-15T21:00:30.942Z,94394.66
2022-12-15T21:03:37.195Z,94398.03
2022-12-15T21:06:24.813Z,94400.56
2022-12-15T21:08:59.052Z,94404.75
2022-12-15T21:11:46.850Z,94402.25
2022-12-15T21:14:26.013Z,94400.56
2022-12-15T21:17:12.859Z,94401.41
2022-12-15T21:19:52.806Z,94403.09
2022-12-15T21:22:48.855Z,94401.41
2022-12-15T21:25:42.840Z,94397.22
2022-12-15T21:28:36.811Z,94393.88
2022-12-15T21:31:25.922Z,94398.09
2022-12-15T21:33:59.903Z,94394.75
2022-12-15T21:36:54.928Z,94397.28
2022-12-15T21:39:39.866Z,94388.88
2022-12-15T21:42:33.811Z,94381.34
2022-12-15T21:45:26.859Z,94375.47
2022-12-15T21:48:18.574Z,94367.94
2022-12-15T21:51:04.833Z,94361.19
2022-12-15T21:53:37.879Z,94364.56
2022-12-15T21:56:26.806Z,94363.72
2022-12-15T21:59:00.465Z,94361.19
2022-12-15T22:01:46.981Z,94346.09
2022-12-15T22:04:26.951Z,94343.59
2022-12-15T22:07:20.814Z,94331.00
2022-12-15T22:10:00.828Z,94336.84
2022-12-15T22:12:59.750Z,94330.97
2022-12-15T22:15:54.716Z,94337.66
2022-12-15T22:18:44.869Z,94336.03
2022-12-15T22:21:24.804Z,94338.56
2022-12-15T22:24:11.870Z,94329.34
2022-12-15T22:26:47.217Z,94329.34
2022-12-15T22:29:36.845Z,94323.47
2022-12-15T22:32:19.967Z,94329.34
2022-12-15T22:35:06.831Z,94325.19
2022-12-15T22:37:39.962Z,94320.16
2022-12-15T22:40:27.874Z,94317.63
2022-12-15T22:43:02.955Z,94300.00
2022-12-15T22:45:49.869Z,94303.34
2022-12-15T22:48:26.935Z,94293.28
2022-12-15T22:51:14.884Z,94284.91
2022-12-15T22:53:48.989Z,94281.56
2022-12-15T22:56:44.846Z,94281.56
2022-12-15T22:59:26.121Z,94283.22
2022-12-15T23:02:12.833Z,94281.56
2022-12-15T23:04:46.980Z,94273.19
2022-12-15T23:07:34.820Z,94261.47
2022-12-15T23:10:26.703Z,94247.22
2022-12-15T23:13:13.870Z,94237.97
2022-12-15T23:16:11.918Z,94233.78
2022-12-15T23:19:01.873Z,94237.13
2022-12-15T23:21:41.881Z,94241.34
2022-12-15T23:24:35.872Z,94235.47
2022-12-15T23:27:25.875Z,94226.28
2022-12-15T23:29:58.947Z,94223.75
2022-12-15T23:32:45.883Z,94218.72
2022-12-15T23:35:25.886Z,94213.69
2022-12-15T23:38:19.874Z,94203.63
2022-12-15T23:41:13.875Z,94208.63
2022-12-15T23:44:08.909Z,94206.97
2022-12-15T23:46:55.957Z,94199.47
2022-12-15T23:49:31.645Z,94195.28
2022-12-15T23:52:20.863Z,94190.25
2022-12-15T23:55:00.897Z,94195.28
2022-12-15T23:57:54.908Z,94187.75
